Ken Boothe Sr — WDG3360 — position and weather

sailwx.info

Track history (hours):
 
Tides and Currents Weather Stations Pressure Air Temp Water Temp Dewpoint Dewpoint Depression Visibility Wind Speed Wind Dir Waves Ship Positions

Ken Boothe Sr

Owner: AMERICAN STEAMSHIP COMPANY, WILLIAMSVILLE, NY. More information available from US FCC via Universal Licensing System and Coast Guard Vessel Documentation Center.

Last reported at 2016-Jan-12 07:17 UTC. Time now 2016-Feb-12 12:01 UTC.
Position N 45°52' W 085°49'.
Warning: this ship's position is 31 days out of date.

Length 30 m; draft 6 m.

Type: Towing. MMSI: 367525230.

Date/timePositionNaut miles runAvg speedWind from/ knotsBaromVisibWave heightAir tempDewpointWater temp
2016-Jan-12 07:17N 45°52' W 085°49'911.9
2016-Jan-12 06:31N 45°53' W 085°36'1111.7
2016-Jan-12 05:33N 45°53' W 085°20'1211.6
2016-Jan-12 04:33N 45°51' W 085°03'1212.1
2016-Jan-12 03:33N 45°49' W 084°46'1211.8
2016-Jan-12 02:33N 45°44' W 084°31'1111.3
2016-Jan-12 01:33N 45°42' W 084°15'  
2016-Jan-06 20:33N 47°00' W 091°40'0 0.1
2016-Jan-06 17:06N 47°01' W 091°40'0 0.0
2016-Jan-06 15:26N 47°01' W 091°40'0 0.0
2016-Jan-06 14:34N 47°01' W 091°40'0 0.0
2016-Jan-06 13:25N 47°01' W 091°40'0 0.2
2016-Jan-06 12:30N 47°01' W 091°40'0 0.0
2016-Jan-04 22:26N 47°01' W 091°40'  
Track history (hours):
 
Tides and Currents Weather Stations Pressure Air Temp Water Temp Dewpoint Dewpoint Depression Visibility Wind Speed Wind Dir Waves Ship Positions

Ken Boothe Sr

Owner: AMERICAN STEAMSHIP COMPANY, WILLIAMSVILLE, NY. More information available from US FCC via Universal Licensing System and Coast Guard Vessel Documentation Center.

Last reported at 2016-Jan-12 07:17 UTC. Time now 2016-Feb-12 12:01 UTC.
Position N 45°52' W 085°49'.
Warning: this ship's position is 31 days out of date.

Length 30 m; draft 6 m.

Type: Towing. MMSI: 367525230.

Date/timePositionNaut miles runAvg speedWind from/ knotsBaromVisibWave heightAir tempDewpointWater temp
2016-Jan-12 07:17N 45°52' W 085°49'911.9
2016-Jan-12 06:31N 45°53' W 085°36'1111.7
2016-Jan-12 05:33N 45°53' W 085°20'1211.6
2016-Jan-12 04:33N 45°51' W 085°03'1212.1
2016-Jan-12 03:33N 45°49' W 084°46'1211.8
2016-Jan-12 02:33N 45°44' W 084°31'1111.3
2016-Jan-12 01:33N 45°42' W 084°15'  
2016-Jan-06 20:33N 47°00' W 091°40'0 0.1
2016-Jan-06 17:06N 47°01' W 091°40'0 0.0
2016-Jan-06 15:26N 47°01' W 091°40'0 0.0
2016-Jan-06 14:34N 47°01' W 091°40'0 0.0
2016-Jan-06 13:25N 47°01' W 091°40'0 0.2
2016-Jan-06 12:30N 47°01' W 091°40'0 0.0
2016-Jan-04 22:26N 47°01' W 091°40'  

Dump ship's entire track history